createdAt,value
2018-06-25T00:03:57.035Z,5.89
2018-06-25T00:09:52.097Z,3.69
2018-06-25T00:15:47.076Z,5.16
2018-06-25T00:21:42.124Z,3.72
2018-06-25T00:27:37.042Z,4.57
2018-06-25T00:33:32.062Z,5.61
2018-06-25T00:39:27.076Z,8.29
2018-06-25T00:45:22.093Z,5.82
2018-06-25T00:51:17.102Z,3.22
2018-06-25T00:57:12.106Z,3.15
2018-06-25T01:03:07.086Z,3.38
2018-06-25T01:09:02.128Z,5.37
2018-06-25T01:14:57.103Z,3.55
2018-06-25T01:20:52.120Z,3.17
2018-06-25T01:26:47.108Z,6.66
2018-06-25T01:32:42.122Z,2.99
2018-06-25T01:38:37.131Z,3.86
2018-06-25T01:44:32.139Z,3.44
2018-06-25T01:50:27.149Z,3.01
2018-06-25T01:56:22.147Z,7
2018-06-25T02:02:17.161Z,4.66
2018-06-25T02:08:12.142Z,5.72
2018-06-25T02:14:07.154Z,4.2
2018-06-25T02:20:02.128Z,9.65
2018-06-25T02:25:57.148Z,5.35
2018-06-25T02:31:52.129Z,4.79
2018-06-25T02:37:47.137Z,3.28
2018-06-25T02:43:42.196Z,5.03
2018-06-25T02:49:37.165Z,5.01
2018-06-25T02:55:32.155Z,5.57
2018-06-25T03:01:27.180Z,3.59
2018-06-25T03:07:22.162Z,4.4
2018-06-25T03:13:17.203Z,3.23
2018-06-25T03:19:12.174Z,4.27
2018-06-25T03:25:07.175Z,4.03
2018-06-25T03:31:02.152Z,8.13
2018-06-25T03:36:57.212Z,3.47
2018-06-25T03:42:52.176Z,4.67
2018-06-25T03:48:47.159Z,3.62
2018-06-25T03:54:42.209Z,4.1
2018-06-25T04:00:37.211Z,8.1
2018-06-25T04:06:32.220Z,5.58
2018-06-25T04:12:27.208Z,8.97
2018-06-25T04:18:22.222Z,7.68
2018-06-25T04:24:17.277Z,5.38
2018-06-25T04:30:12.222Z,8.8
2018-06-25T04:36:07.268Z,6.06
2018-06-25T04:42:02.192Z,7.51
2018-06-25T04:47:57.236Z,3.03
2018-06-25T04:53:52.199Z,7.38
2018-06-25T04:59:47.224Z,32.03
2018-06-25T05:05:42.318Z,53.85
2018-06-25T05:11:37.191Z,36.55
2018-06-25T05:17:32.280Z,36.41
2018-06-25T05:23:27.273Z,14.11
2018-06-25T05:29:22.267Z,19.3
2018-06-25T05:35:17.271Z,9.95
2018-06-25T05:41:12.233Z,9.17
2018-06-25T05:47:07.249Z,7.07
2018-06-25T05:53:02.297Z,8.85
2018-06-25T05:58:57.259Z,11.91
2018-06-25T06:04:52.285Z,10.59
2018-06-25T06:10:47.277Z,12.7
2018-06-25T06:16:42.297Z,6.99
2018-06-25T06:22:37.251Z,9.19
2018-06-25T06:28:32.335Z,6.11
2018-06-25T06:34:27.273Z,4.11
2018-06-25T06:40:22.358Z,5.52
2018-06-25T06:46:17.266Z,7.21
2018-06-25T06:52:12.356Z,4.34
2018-06-25T06:58:07.294Z,3.55
2018-06-25T07:04:02.335Z,8.83
2018-06-25T07:09:57.312Z,3.33
2018-06-25T07:15:52.292Z,5.07
2018-06-25T07:21:47.300Z,3.33
2018-06-25T07:27:42.312Z,7.18
2018-06-25T07:33:37.319Z,5.21
2018-06-25T07:39:32.309Z,7.45
2018-06-25T07:45:27.332Z,4.07
2018-06-25T07:51:22.324Z,7.22
2018-06-25T07:57:17.345Z,7.71
2018-06-25T08:03:12.291Z,7.52
2018-06-25T08:09:07.344Z,8.59
2018-06-25T08:15:02.472Z,3.69
2018-06-25T08:20:57.352Z,5
2018-06-25T08:26:52.320Z,8.6
2018-06-25T08:32:47.302Z,6.84
2018-06-25T08:38:42.329Z,6.08
2018-06-25T08:44:37.337Z,4.13
2018-06-25T08:50:32.364Z,8.84
2018-06-25T08:56:27.369Z,11.32
2018-06-25T09:02:22.407Z,2.65
2018-06-25T09:08:17.372Z,4.27
2018-06-25T09:14:12.421Z,2.72
2018-06-25T09:20:07.368Z,2.79
2018-06-25T09:26:02.351Z,4.39
2018-06-25T09:31:57.378Z,2
2018-06-25T09:37:52.421Z,1.77
2018-06-25T09:43:47.386Z,1.4
2018-06-25T09:49:42.366Z,2.64
2018-06-25T09:55:37.360Z,7.23
2018-06-25T10:01:32.423Z,11.82
2018-06-25T10:07:27.441Z,13.06
2018-06-25T10:13:22.390Z,4.14
2018-06-25T10:19:17.438Z,3.39
2018-06-25T10:25:12.414Z,4.34
2018-06-25T10:31:07.414Z,5.49
2018-06-25T10:37:02.417Z,3.45
2018-06-25T10:42:57.430Z,4.88
2018-06-25T10:48:52.472Z,2.46
2018-06-25T10:54:47.434Z,2.46
2018-06-25T11:00:42.477Z,2.97
2018-06-25T11:06:37.490Z,3.57
2018-06-25T11:12:32.479Z,2.59
2018-06-25T11:18:27.448Z,5.02
2018-06-25T11:24:22.516Z,4.64
2018-06-25T11:30:17.464Z,2.6
2018-06-25T11:36:12.429Z,2.98
2018-06-25T11:42:07.464Z,1.32
2018-06-25T11:48:02.471Z,5.45
2018-06-25T11:53:57.538Z,4.39
2018-06-25T11:59:52.468Z,2.37
2018-06-25T12:05:47.536Z,3.4
2018-06-25T12:11:42.506Z,3.31
2018-06-25T12:17:37.741Z,2.05
2018-06-25T12:23:32.473Z,3.13
2018-06-25T12:29:27.463Z,2.45
2018-06-25T12:35:22.561Z,1.17
2018-06-25T12:41:17.483Z,1.64
2018-06-25T12:47:12.529Z,4.92
2018-06-25T12:53:07.517Z,0.8
2018-06-25T12:59:02.508Z,1.06
2018-06-25T13:04:57.484Z,0.74
2018-06-25T13:10:52.560Z,1.45
2018-06-25T13:16:47.500Z,1.87
2018-06-25T13:22:42.514Z,0.77
2018-06-25T13:28:37.519Z,0.84
2018-06-25T13:34:32.521Z,1.87
2018-06-25T13:40:27.526Z,0.55
2018-06-25T13:46:22.536Z,1.66
2018-06-25T13:52:17.540Z,0.42
2018-06-25T13:58:12.503Z,0.64
2018-06-25T14:04:07.585Z,1.08
2018-06-25T14:10:02.785Z,0.53
2018-06-25T14:15:57.600Z,0.76
2018-06-25T14:21:52.551Z,0.45
2018-06-25T14:27:47.535Z,1.28
2018-06-25T14:33:42.609Z,0.54
2018-06-25T14:39:37.556Z,0.74
2018-06-25T14:45:32.548Z,0.6
2018-06-25T14:51:27.591Z,1.08
2018-06-25T14:57:22.604Z,1.12
2018-06-25T15:03:17.547Z,0.9
2018-06-25T15:09:12.592Z,0.67
2018-06-25T15:15:07.604Z,0.88
2018-06-25T15:21:02.585Z,0.85
2018-06-25T15:26:57.639Z,0.57
2018-06-25T15:32:52.559Z,1.61
2018-06-25T15:38:47.577Z,0.7
2018-06-25T15:44:42.582Z,2.25
2018-06-25T15:50:37.576Z,1.72
2018-06-25T15:56:32.583Z,0.64
2018-06-25T16:02:27.577Z,0.73
2018-06-25T16:08:22.702Z,0.56
2018-06-25T16:14:17.627Z,1.45
2018-06-25T16:20:12.621Z,0.68
2018-06-25T16:26:07.635Z,1.25
2018-06-25T16:32:02.654Z,0.59
2018-06-25T16:37:57.633Z,0.92
2018-06-25T16:43:52.646Z,0.63
2018-06-25T16:49:47.667Z,0.8
2018-06-25T16:55:42.661Z,0.92
2018-06-25T17:01:37.679Z,1.29
2018-06-25T17:07:32.665Z,2.24
2018-06-25T17:13:27.658Z,2.97
2018-06-25T17:19:22.626Z,0.77
2018-06-25T17:25:17.635Z,0.61
2018-06-25T17:31:12.649Z,3.22
2018-06-25T17:37:07.635Z,0.67
2018-06-25T17:43:02.674Z,1.13
2018-06-25T17:48:57.679Z,1.7
2018-06-25T17:54:52.729Z,1.14
2018-06-25T18:00:47.702Z,0.58
2018-06-25T18:06:42.676Z,1
2018-06-25T18:12:37.767Z,0.73
2018-06-25T18:18:32.671Z,1.72
2018-06-25T18:24:27.692Z,0.86
2018-06-25T18:30:22.699Z,0.57
2018-06-25T18:36:17.708Z,0.92
2018-06-25T18:42:12.692Z,0.62
2018-06-25T18:48:07.745Z,2.37
2018-06-25T18:54:02.703Z,1.52
2018-06-25T18:59:57.750Z,0.59
2018-06-25T19:05:52.724Z,0.81
2018-06-25T19:11:47.749Z,2
2018-06-25T19:17:42.780Z,2.04
2018-06-25T19:23:37.794Z,0.75
2018-06-25T19:29:32.741Z,0.89
2018-06-25T19:35:27.734Z,1.44
2018-06-25T19:41:22.762Z,4.2
2018-06-25T19:47:17.756Z,1.3
2018-06-25T19:53:12.743Z,1.59
2018-06-25T19:59:07.791Z,0.73
2018-06-25T20:05:02.784Z,1.22
2018-06-25T20:10:57.739Z,1.37
2018-06-25T20:16:52.754Z,0.89
2018-06-25T20:22:48.075Z,2.8
2018-06-25T20:28:42.788Z,1.03
2018-06-25T20:34:37.809Z,4.44
2018-06-25T20:40:32.789Z,2.37
2018-06-25T20:46:27.792Z,1.07
2018-06-25T20:52:22.817Z,2.45
2018-06-25T20:58:17.802Z,1.68
2018-06-25T21:04:12.783Z,1.45
2018-06-25T21:10:07.808Z,2.1
2018-06-25T21:16:02.805Z,2.02
2018-06-25T21:21:57.817Z,1.93
2018-06-25T21:27:52.837Z,2.37
2018-06-25T21:33:47.821Z,1.98
2018-06-25T21:39:42.870Z,3.35
2018-06-25T21:45:37.902Z,2.86
2018-06-25T21:51:32.895Z,1.16
2018-06-25T21:57:27.921Z,1.25
2018-06-25T22:03:22.795Z,1.5
2018-06-25T22:09:17.882Z,2.57
2018-06-25T22:15:12.843Z,1.26
2018-06-25T22:21:07.859Z,1.65
2018-06-25T22:27:02.843Z,2.09
2018-06-25T22:32:57.857Z,0.94
2018-06-25T22:38:52.916Z,0.73
2018-06-25T22:44:47.878Z,1.18
2018-06-25T22:50:42.921Z,2.24
2018-06-25T22:56:37.908Z,1.07
2018-06-25T23:02:32.882Z,0.75
2018-06-25T23:08:27.961Z,1.31
2018-06-25T23:14:22.926Z,2.2
2018-06-25T23:20:17.899Z,0.82
2018-06-25T23:26:12.903Z,1.21
2018-06-25T23:32:07.931Z,0.82
2018-06-25T23:38:02.913Z,0.97
2018-06-25T23:43:57.894Z,0.79
2018-06-25T23:49:52.909Z,0.85
2018-06-25T23:55:47.902Z,0.8
